Terminal Aerodrome Forecast
Issued by NWS

Home | Current Version | Previous Version | Text Only | Print | Product List | Glossary On
Versions: 1 2 3 4 5 6 7 8 9 10 11 12 13 14 15 16 17 18 19 20
000
FTUS44 KCRP 302300
TAFALI
TAF
KALI 302320Z 3100/3124 12010KT P6SM FEW050
     FM310700 VRB04KT 5SM BR FEW015 SCT060
      TEMPO 3110/3114 2SM -RA BR BKN015
     FM311400 02013KT P6SM BKN050=

USA.gov is the U.S. government's official web portal to all federal, state and local government web resources and services.